Reeves, Louisiana
Current Conditions -  °F | °C
As of 1:50 PM on Saturday 22 Nov 2014 (Local Time) from KCWF Reporting Station
Broken Clouds Broken Clouds  
Wind Chill: 72°   Ceiling: 2800
Heat Index: 72°   Visibility: 10mi
Dew Point: 61°   Wind: 17mph
Humidity: 69%   Direction: 120°ESE
Pressure: 29.99"   Gusts: 29mph
Location:  30.52°N, 93.05°W
Report Text: KCWF 221950Z 12015G25KT 10SM BKN028 BKN033 22/16 A2999
Loading
Personal Weather Stations






























Interactive Weather Map New forecast layout! Learn more

10-Day Weather Forecast

Advertisements
Track Severe Weather on mobile